createdAt,value
2022-09-26T00:01:30.274Z,97.39
2022-09-26T00:16:30.702Z,95.76
2022-09-26T00:31:30.810Z,94.98
2022-09-26T00:46:30.917Z,94.51
2022-09-26T01:01:31.140Z,94.30
2022-09-26T01:16:31.109Z,92.90
2022-09-26T01:31:31.168Z,92.43
2022-09-26T01:46:31.262Z,86.18
2022-09-26T02:01:31.516Z,83.34
2022-09-26T02:16:31.508Z,83.31
2022-09-26T02:31:31.620Z,84.33
2022-09-26T02:46:31.669Z,86.11
2022-09-26T03:01:32.027Z,89.03
2022-09-26T03:16:31.993Z,87.53
2022-09-26T03:31:32.566Z,89.42
2022-09-26T03:46:37.625Z,84.84
2022-09-26T04:01:37.489Z,86.05
2022-09-26T04:16:37.640Z,82.45
2022-09-26T04:31:37.811Z,83.27
2022-09-26T04:46:37.867Z,80.74
2022-09-26T05:01:39.185Z,80.88
2022-09-26T05:16:39.114Z,82.67
2022-09-26T05:31:39.343Z,79.37
2022-09-26T05:46:39.339Z,79.09
2022-09-26T06:01:39.998Z,79.47
2022-09-26T06:16:40.663Z,80.62
2022-09-26T06:31:40.749Z,74.80
2022-09-26T06:46:40.824Z,81.51
2022-09-26T07:01:41.265Z,93.10
2022-09-26T07:16:41.428Z,99.99
2022-09-26T07:31:41.458Z,99.99
2022-09-26T07:46:41.654Z,99.99
2022-09-26T08:01:41.842Z,98.77
2022-09-26T08:16:41.777Z,94.17
2022-09-26T08:31:42.184Z,88.98
2022-09-26T08:46:42.353Z,81.26
2022-09-26T09:01:42.570Z,76.68
2022-09-26T09:16:42.833Z,74.12
2022-09-26T09:31:42.596Z,72.94
2022-09-26T09:46:42.781Z,71.47
2022-09-26T10:01:42.729Z,70.73
2022-09-26T10:16:42.801Z,69.25
2022-09-26T10:31:43.476Z,71.57
2022-09-26T10:46:44.054Z,70.19
2022-09-26T11:01:44.235Z,71.44
2022-09-26T11:16:44.231Z,69.38
2022-09-26T11:31:44.474Z,70.32
2022-09-26T11:46:44.526Z,65.39
2022-09-26T12:01:44.621Z,63.85
2022-09-26T12:16:44.689Z,67.54
2022-09-26T12:31:44.987Z,68.61
2022-09-26T12:46:45.034Z,69.38
2022-09-26T13:01:45.270Z,68.81
2022-09-26T13:16:45.136Z,68.74
2022-09-26T13:31:45.316Z,67.88
2022-09-26T13:46:45.499Z,66.97
2022-09-26T14:01:45.540Z,64.78
2022-09-26T14:16:45.517Z,60.91
2022-09-26T14:31:45.671Z,61.40
2022-09-26T14:46:45.818Z,67.03
2022-09-26T15:01:46.062Z,66.83
2022-09-26T15:16:45.965Z,67.27
2022-09-26T15:31:46.178Z,67.43
2022-09-26T15:46:46.283Z,67.69
2022-09-26T16:01:46.356Z,70.39
2022-09-26T16:16:46.369Z,72.81
2022-09-26T16:31:46.508Z,75.12
2022-09-26T16:46:46.889Z,77.42
2022-09-26T17:01:46.740Z,79.32
2022-09-26T17:16:46.829Z,81.39
2022-09-26T17:31:46.903Z,82.48
2022-09-26T17:46:47.098Z,83.70
2022-09-26T18:01:47.302Z,84.31
2022-09-26T18:16:47.213Z,84.68
2022-09-26T18:31:47.602Z,83.06
2022-09-26T18:46:49.395Z,83.46
2022-09-26T19:01:50.564Z,83.46
2022-09-26T19:16:51.155Z,83.91
2022-09-26T19:31:51.843Z,84.92
2022-09-26T19:46:51.952Z,84.52
2022-09-26T20:01:52.300Z,85.88
2022-09-26T20:16:52.730Z,87.24
2022-09-26T20:31:53.000Z,87.96
2022-09-26T20:46:53.113Z,88.51
2022-09-26T21:01:53.260Z,90.03
2022-09-26T21:16:53.325Z,89.63
2022-09-26T21:31:53.449Z,91.09
2022-09-26T21:46:53.677Z,90.89
2022-09-26T22:01:54.358Z,91.81
2022-09-26T22:16:54.892Z,92.48
2022-09-26T22:31:54.976Z,94.71
2022-09-26T22:46:55.113Z,95.83
2022-09-26T23:01:55.355Z,97.16
2022-09-26T23:16:55.307Z,96.95
2022-09-26T23:31:55.349Z,96.95
2022-09-26T23:46:55.460Z,97.97
